Nearby METAR Reports

 

KSJC - San Jose, California, USA
Distance from station: NE 9mi, 14km
Updated: Thu, 09-Apr-2020 3:53am CDT
Clear
Clear
 Wind from S
Wind: S 5 mph , 7 km/h
Temperature: 54°F , 12°C
Dew Point: 45°F , 7°C
Humidity: 72%
Barometer: 29.98 inHg , 1015.2 hPa
Clouds: Clear
Visibility: 10 miles , 16 km
2020/04/09 08:53 KSJC 090853Z AUTO 19004KT 10SM CLR 12/07 A2998 RMK AO2 SLP151 T01220072 53003
KNUQ - Moffett Nas/Mtn, California, USA
Distance from station: N 9mi, 14km
Updated: Thu, 21-Nov-2019 10:56am CST
NOT Current

 
Barometer: 29.86 inHg , 1011.2 hPa
2019/11/21 16:56 KNUQ 211656Z AUTO A2986 RMK AO2 SLP116 PWINO $
 
KPAO - Palo Alto, California, USA
Distance from station: NNW 14mi, 23km
Updated: Wed, 08-Apr-2020 10:47pm CDT
NOT Current
Overcast
Overcast
 Wind from SW
Wind: SW 10 mph , 17 km/h
Temperature: 55°F , 13°C
Dew Point: 48°F , 9°C
Humidity: 77%
Barometer: 29.98 inHg , 1015.2 hPa
Clouds: Overcast
Visibility: 10 miles , 16 km
Cloud details: Few Clouds 3000 ft
Overcast 8000 ft
2020/04/09 03:47 KPAO 090347Z 22009KT 10SM FEW030 OVC080 13/09 A2998 RMK LAST
KRHV - San Jose/Reid, California, USA
Distance from station: ENE 12mi, 19km
Updated: Wed, 08-Apr-2020 11:52pm CDT
NOT Current
Mostly cloudy
Mostly cloudy
 Wind from SE
Wind: SE 8 mph , 13 km/h
Temperature: 55°F , 13°C
Dew Point: 46°F , 8°C
Humidity: 72%
Barometer: 29.99 inHg , 1015.6 hPa
Clouds: Mostly cloudy
Visibility: 10 miles , 16 km
Cloud details: Mostly cloudy 3000 ft
2020/04/09 04:52 KRHV 090452Z 14007KT 10SM BKN030 13/08 A2999
 
KOAK - Oakland, California, USA
Distance from station: NNW 31mi, 50km
Updated: Thu, 09-Apr-2020 4:11am CDT
Overcast
Overcast
 Wind from SSE
Wind: SSE 9 mph , 15 km/h
Temperature: 57°F , 14°C
Dew Point: 48°F , 9°C
Humidity: 72%
Barometer: 30.00 inHg , 1015.9 hPa
Clouds: Overcast
Visibility: 10 miles , 16 km
Cloud details: Mostly cloudy 2600 ft
Overcast 3000 ft
2020/04/09 09:11 KOAK 090911Z 16008KT 10SM BKN026 OVC030 14/09 A3000 RMK AO2 T01390089
KSQL - San Carlos Airpo, California, USA
Distance from station: NW 21mi, 34km
Updated: Thu, 09-Apr-2020 3:55am CDT
Clear
Clear
 Wind from SSE
Wind: SSE 5 mph , 7 km/h
Temperature: 52°F , 11°C
Dew Point: 46°F , 8°C
Humidity: 82%
Barometer: 29.98 inHg , 1015.2 hPa
Clouds: Clear
Visibility: 10 miles , 16 km
2020/04/09 08:55 KSQL 090855Z AUTO 15004KT 10SM CLR 11/08 A2998 RMK AO2
 
KSFO - San Francisco, California, USA
Distance from station: NW 30mi, 49km
Updated: Thu, 09-Apr-2020 3:56am CDT
Mostly cloudy
Mostly cloudy
 Wind from S
Wind: S 8 mph , 13 km/h
Temperature: 54°F , 12°C
Dew Point: 46°F , 8°C
Humidity: 77%
Barometer: 29.96 inHg , 1014.6 hPa
Clouds: Mostly cloudy
Visibility: 10 miles , 16 km
Cloud details: Few Clouds 1700 ft
Partly cloudy 2500 ft
Mostly cloudy 3300 ft
2020/04/09 08:56 KSFO 090856Z 18007KT 10SM FEW017 SCT025 BKN033 12/08 A2996 RMK AO2 SLP144 T01170083 56006
KE16 - San Martin, California, USA
Distance from station: ESE 27mi, 43km
Updated: Thu, 14-Nov-2019 3:35am CST
NOT Current
Overcast
Overcast
 Wind from SE
Wind: SE 7 mph , 11 km/h
Temperature: 54°F , 12°C
Dew Point: 50°F , 10°C
Humidity: 88%
Barometer: 30.05 inHg , 1017.6 hPa
Clouds: Overcast
Visibility: 10 miles , 16 km
Cloud details: Overcast 1400 ft
2019/11/14 09:35 KE16 140935Z AUTO 13006KT 10SM OVC014 12/10 A3005 RMK AO2
 
KWVI - Watsonville, California, USA
Distance from station: SSE 27mi, 44km
Updated: Thu, 09-Apr-2020 3:53am CDT
Overcast
Overcast
 Wind from calm
Wind: Calm
Temperature: 52°F , 11°C
Dew Point: 50°F , 10°C
Humidity: 94%
Barometer: 30.01 inHg , 1016.3 hPa
Clouds: Overcast
Visibility: 10 miles , 16 km
Cloud details: Mostly cloudy 1300 ft
Overcast 2000 ft
2020/04/09 08:53 KWVI 090853Z AUTO 00000KT 10SM BKN013 OVC020 11/10 A3001 RMK AO2 SLP161 T01110100 53002
KHAF - Half Moon Bay, California, USA
Distance from station: WNW 31mi, 50km
Updated: Thu, 09-Apr-2020 4:00am CDT
Mist, Overcast
Mist, Overcast
 Wind from SSE
Wind: SSE 12 mph , 19 km/h
Temperature: 52°F , 11°C
Dew Point: 50°F , 10°C
Humidity: 94%
Barometer: 29.98 inHg , 1015.2 hPa
Summary: Mist
Clouds: Overcast
Visibility: 5 miles , 8 km
Cloud details: Mostly cloudy 900 ft
Overcast 1700 ft
2020/04/09 09:00 KHAF 090900Z AUTO 16010KT 5SM BR BKN009 OVC017 11/10 A2998 RMK AO2
 
KHWD - Hayward, California, USA
Distance from station: N 28mi, 44km
Updated: Thu, 09-Apr-2020 3:54am CDT
Overcast
Overcast
 Wind from SE
Wind: SE 7 mph , 11 km/h
Temperature: 55°F , 13°C
Dew Point: 46°F , 8°C
Humidity: 72%
Barometer: 29.98 inHg , 1015.2 hPa
Clouds: Overcast
Visibility: 10 miles , 16 km
Cloud details: Overcast 2900 ft
2020/04/09 08:54 KHWD 090854Z AUTO 14006KT 10SM OVC029 13/08 A2998 RMK AO2 SLP161 T01280078 51005
KLVK - Livermore, California, USA
Distance from station: NNE 31mi, 51km
Updated: Thu, 09-Apr-2020 3:53am CDT
Overcast
Overcast
 Wind from W
Wind: W 5 mph , 7 km/h
Temperature: 52°F , 11°C
Dew Point: 46°F , 8°C
Humidity: 82%
Barometer: 29.97 inHg , 1014.9 hPa
Clouds: Overcast
Visibility: 10 miles , 16 km
Cloud details: Mostly cloudy 2700 ft
Overcast 3200 ft
2020/04/09 08:53 KLVK 090853Z AUTO 28004KT 10SM BKN027 OVC032 11/08 A2997 RMK AO2 SLP147 T01110083 53004